createdAt,value
2022-11-05T00:00:51.759Z,91.04
2022-11-05T00:03:38.057Z,91.04
2022-11-05T00:06:27.792Z,91.60
2022-11-05T00:09:14.365Z,91.34
2022-11-05T00:12:00.434Z,91.08
2022-11-05T00:14:46.439Z,91.61
2022-11-05T00:17:13.922Z,90.99
2022-11-05T00:19:41.387Z,90.94
2022-11-05T00:22:27.355Z,90.99
2022-11-05T00:25:13.227Z,91.35
2022-11-05T00:27:41.444Z,91.16
2022-11-05T00:30:09.774Z,91.74
2022-11-05T00:32:37.805Z,91.29
2022-11-05T00:35:07.446Z,91.80
2022-11-05T00:37:35.753Z,91.85
2022-11-05T00:40:04.436Z,91.78
2022-11-05T00:42:50.575Z,91.89
2022-11-05T00:45:18.282Z,91.39
2022-11-05T00:48:04.953Z,91.99
2022-11-05T00:50:33.703Z,92.05
2022-11-05T00:53:01.933Z,92.00
2022-11-05T00:55:38.448Z,91.90
2022-11-05T00:58:23.959Z,91.83
2022-11-05T01:00:54.213Z,92.03
2022-11-05T01:03:24.511Z,91.52
2022-11-05T01:05:55.130Z,91.89
2022-11-05T01:08:24.875Z,91.73
2022-11-05T01:10:57.761Z,92.07
2022-11-05T01:13:28.521Z,92.05
2022-11-05T01:15:56.552Z,91.79
2022-11-05T01:18:25.439Z,92.43
2022-11-05T01:20:53.196Z,92.15
2022-11-05T01:23:21.235Z,91.83
2022-11-05T01:25:49.136Z,92.07
2022-11-05T01:28:16.795Z,92.36
2022-11-05T01:30:44.436Z,91.77
2022-11-05T01:33:12.144Z,91.32
2022-11-05T01:35:40.046Z,91.42
2022-11-05T01:38:07.526Z,91.74
2022-11-05T01:40:35.140Z,91.26
2022-11-05T01:43:02.636Z,91.61
2022-11-05T01:45:30.182Z,91.27
2022-11-05T01:48:23.510Z,91.87
2022-11-05T01:50:56.942Z,91.76
2022-11-05T01:53:36.271Z,91.79
2022-11-05T01:56:29.633Z,91.99
2022-11-05T01:59:09.354Z,91.35
2022-11-05T02:01:37.020Z,91.63
2022-11-05T02:04:09.568Z,91.85
2022-11-05T02:06:46.064Z,91.75
2022-11-05T02:09:18.777Z,91.96
2022-11-05T02:11:46.932Z,92.13
2022-11-05T02:14:14.393Z,91.90
2022-11-05T02:16:49.447Z,91.63
2022-11-05T02:19:57.372Z,91.43
2022-11-05T02:23:02.273Z,91.14
2022-11-05T02:26:11.903Z,92.07
2022-11-05T02:29:04.036Z,91.75
2022-11-05T02:31:34.224Z,91.05
2022-11-05T02:34:33.124Z,91.34
2022-11-05T02:37:15.359Z,91.29
2022-11-05T02:39:54.462Z,90.79
2022-11-05T02:42:29.917Z,91.40
2022-11-05T02:45:05.300Z,91.30
2022-11-05T02:47:45.892Z,91.47
2022-11-05T02:50:25.020Z,91.82
2022-11-05T02:53:23.886Z,91.62
2022-11-05T02:56:04.335Z,92.17
2022-11-05T02:58:33.809Z,91.77
2022-11-05T03:01:06.848Z,92.46
2022-11-05T03:03:39.063Z,91.83
2022-11-05T03:06:34.038Z,91.83
2022-11-05T03:09:15.470Z,92.22
2022-11-05T03:11:51.483Z,92.33
2022-11-05T03:14:50.209Z,91.93
2022-11-05T03:17:17.817Z,92.01
2022-11-05T03:19:53.855Z,92.03
2022-11-05T03:22:26.130Z,92.27
2022-11-05T03:25:02.433Z,92.16
2022-11-05T03:27:34.649Z,92.12
2022-11-05T03:30:06.856Z,92.21
2022-11-05T03:32:38.631Z,92.07
2022-11-05T03:35:12.971Z,91.86
2022-11-05T03:37:43.567Z,92.03
2022-11-05T03:40:13.779Z,91.82
2022-11-05T03:42:45.308Z,91.36
2022-11-05T03:45:20.774Z,91.63
2022-11-05T03:47:51.275Z,91.87
2022-11-05T03:50:29.028Z,92.28
2022-11-05T03:53:19.955Z,92.44
2022-11-05T03:55:50.893Z,91.96
2022-11-05T03:58:21.756Z,92.55
2022-11-05T04:00:50.866Z,92.62
2022-11-05T04:03:18.575Z,92.55
2022-11-05T04:06:06.359Z,92.27
2022-11-05T04:08:52.756Z,92.89
2022-11-05T04:11:38.826Z,92.38
2022-11-05T04:14:06.393Z,92.32
2022-11-05T04:16:52.543Z,92.62
2022-11-05T04:19:40.078Z,92.38
2022-11-05T04:22:26.473Z,92.42
2022-11-05T04:24:54.036Z,92.99
2022-11-05T04:27:21.529Z,92.90
2022-11-05T04:30:07.549Z,92.40
2022-11-05T04:32:35.056Z,92.68
2022-11-05T04:35:02.677Z,93.13
2022-11-05T04:37:30.266Z,92.92
2022-11-05T04:39:57.728Z,92.20
2022-11-05T04:42:25.382Z,92.49
2022-11-05T04:44:52.873Z,92.27
2022-11-05T04:47:20.340Z,92.40
2022-11-05T04:49:47.807Z,91.99
2022-11-05T04:52:15.463Z,92.97
2022-11-05T04:54:42.940Z,92.49
2022-11-05T04:57:10.399Z,92.66
2022-11-05T04:59:37.976Z,92.22
2022-11-05T05:02:05.632Z,92.25
2022-11-05T05:04:33.294Z,92.66
2022-11-05T05:07:00.812Z,92.44
2022-11-05T05:09:28.312Z,92.07
2022-11-05T05:11:55.815Z,92.55
2022-11-05T05:14:23.376Z,92.08
2022-11-05T05:16:50.885Z,91.92
2022-11-05T05:19:18.408Z,91.88
2022-11-05T05:21:45.994Z,92.56
2022-11-05T05:24:17.469Z,92.35
2022-11-05T05:26:50.266Z,91.55
2022-11-05T05:29:18.601Z,91.95
2022-11-05T05:31:46.149Z,92.40
2022-11-05T05:34:14.879Z,92.37
2022-11-05T05:36:42.314Z,92.50
2022-11-05T05:39:11.133Z,91.74
2022-11-05T05:41:38.835Z,91.67
2022-11-05T05:44:06.760Z,91.74
2022-11-05T05:46:34.294Z,91.77
2022-11-05T05:49:01.894Z,91.87
2022-11-05T05:51:29.371Z,91.78
2022-11-05T05:53:56.884Z,91.58
2022-11-05T05:56:24.392Z,91.95
2022-11-05T05:58:52.350Z,92.06
2022-11-05T06:01:20.314Z,91.78
2022-11-05T06:03:48.994Z,92.28
2022-11-05T06:06:21.207Z,91.86
2022-11-05T06:08:49.171Z,92.27
2022-11-05T06:11:16.814Z,92.44
2022-11-05T06:13:44.511Z,91.75
2022-11-05T06:16:12.066Z,92.03
2022-11-05T06:18:39.722Z,91.82
2022-11-05T06:21:09.963Z,92.24
2022-11-05T06:23:39.895Z,92.14
2022-11-05T06:26:13.427Z,91.92
2022-11-05T06:28:42.418Z,92.80
2022-11-05T06:31:10.909Z,92.62
2022-11-05T06:33:39.763Z,91.96
2022-11-05T06:36:08.888Z,92.51
2022-11-05T06:38:36.940Z,92.24
2022-11-05T06:41:10.044Z,93.08
2022-11-05T06:43:38.741Z,91.89
2022-11-05T06:46:06.821Z,92.85
2022-11-05T06:48:34.397Z,93.14
2022-11-05T06:51:02.578Z,92.19
2022-11-05T06:53:30.712Z,92.19
2022-11-05T06:56:01.387Z,92.37
2022-11-05T06:58:29.601Z,92.77
2022-11-05T07:01:01.512Z,92.61
2022-11-05T07:03:29.651Z,92.44
2022-11-05T07:06:00.443Z,92.41
2022-11-05T07:08:32.391Z,92.43
2022-11-05T07:11:00.209Z,92.37
2022-11-05T07:13:28.027Z,92.90
2022-11-05T07:15:56.083Z,92.67
2022-11-05T07:18:24.042Z,92.48
2022-11-05T07:20:51.634Z,92.92
2022-11-05T07:23:19.197Z,92.93
2022-11-05T07:25:46.883Z,92.42
2022-11-05T07:28:14.637Z,93.04
2022-11-05T07:30:42.279Z,92.91
2022-11-05T07:33:10.297Z,92.59
2022-11-05T07:35:38.059Z,92.63
2022-11-05T07:38:05.629Z,92.77
2022-11-05T07:40:33.135Z,92.50
2022-11-05T07:43:01.790Z,92.86
2022-11-05T07:45:31.317Z,92.94
2022-11-05T07:48:01.358Z,93.09
2022-11-05T07:50:32.129Z,93.34
2022-11-05T07:53:01.386Z,92.76
2022-11-05T07:55:30.628Z,93.43
2022-11-05T07:57:59.068Z,93.39
2022-11-05T08:00:27.807Z,92.82
2022-11-05T08:03:07.665Z,93.60
2022-11-05T08:05:47.680Z,93.50
2022-11-05T08:08:19.836Z,93.67
2022-11-05T08:10:47.439Z,93.47
2022-11-05T08:13:15.528Z,93.95
2022-11-05T08:15:43.696Z,93.75
2022-11-05T08:18:14.810Z,93.83
2022-11-05T08:20:43.713Z,93.40
2022-11-05T08:23:11.896Z,93.26
2022-11-05T08:25:40.271Z,93.69
2022-11-05T08:28:13.590Z,93.14
2022-11-05T08:30:41.247Z,94.18
2022-11-05T08:33:13.234Z,93.43
2022-11-05T08:35:41.977Z,93.57
2022-11-05T08:38:15.992Z,93.15
2022-11-05T08:40:45.478Z,93.18
2022-11-05T08:43:14.772Z,93.14
2022-11-05T08:45:42.755Z,93.18
2022-11-05T08:48:15.613Z,93.30
2022-11-05T08:50:44.463Z,93.24
2022-11-05T08:53:12.595Z,93.14
2022-11-05T08:55:40.430Z,92.74
2022-11-05T08:58:12.690Z,93.66
2022-11-05T09:00:40.870Z,92.84
2022-11-05T09:03:09.942Z,92.67
2022-11-05T09:05:40.145Z,93.36
2022-11-05T09:08:32.772Z,93.90
2022-11-05T09:11:00.951Z,93.25
2022-11-05T09:13:28.829Z,93.32
2022-11-05T09:15:58.907Z,93.72
2022-11-05T09:18:26.656Z,93.67
2022-11-05T09:20:54.307Z,93.74
2022-11-05T09:23:22.197Z,93.28
2022-11-05T09:25:49.899Z,93.70
2022-11-05T09:28:19.105Z,93.65
2022-11-05T09:31:12.335Z,93.40
2022-11-05T09:33:41.095Z,92.80
2022-11-05T09:36:08.985Z,93.03
2022-11-05T09:38:37.088Z,93.76
2022-11-05T09:41:24.129Z,94.23
2022-11-05T09:43:56.578Z,93.25
2022-11-05T09:46:27.318Z,93.77
2022-11-05T09:49:06.196Z,93.51
2022-11-05T09:51:36.202Z,93.75
2022-11-05T09:54:05.643Z,93.53
2022-11-05T09:56:37.288Z,93.69
2022-11-05T09:59:17.513Z,94.29
2022-11-05T10:01:46.162Z,94.12
2022-11-05T10:04:18.313Z,93.71
2022-11-05T10:07:05.504Z,94.08
2022-11-05T10:09:56.045Z,93.44
2022-11-05T10:12:34.599Z,93.50
2022-11-05T10:15:21.706Z,93.74
2022-11-05T10:17:58.662Z,93.88
2022-11-05T10:20:38.343Z,94.53
2022-11-05T10:23:17.887Z,93.91
2022-11-05T10:25:47.998Z,94.03
2022-11-05T10:28:20.970Z,94.20
2022-11-05T10:30:55.745Z,93.45
2022-11-05T10:33:30.910Z,93.63
2022-11-05T10:36:04.683Z,94.21
2022-11-05T10:38:33.366Z,94.00
2022-11-05T10:41:07.230Z,93.58
2022-11-05T10:43:43.264Z,93.94
2022-11-05T10:46:32.719Z,93.67
2022-11-05T10:49:20.649Z,93.62
2022-11-05T10:51:55.733Z,93.86
2022-11-05T10:54:26.460Z,93.97
2022-11-05T10:56:54.037Z,94.30
2022-11-05T10:59:30.260Z,93.59
2022-11-05T11:02:01.159Z,94.30
2022-11-05T11:04:36.540Z,94.36
2022-11-05T11:07:05.746Z,94.24
2022-11-05T11:09:36.637Z,94.08
2022-11-05T11:12:19.699Z,94.23
2022-11-05T11:15:28.247Z,93.85
2022-11-05T11:17:56.678Z,94.09
2022-11-05T11:20:28.836Z,94.31
2022-11-05T11:23:17.045Z,94.36
2022-11-05T11:26:03.781Z,93.94
2022-11-05T11:28:46.094Z,94.41
2022-11-05T11:31:15.164Z,94.28
2022-11-05T11:33:47.110Z,94.03
2022-11-05T11:36:18.703Z,94.17
2022-11-05T11:38:46.426Z,94.12
2022-11-05T11:41:30.522Z,93.99
2022-11-05T11:44:24.693Z,94.48
2022-11-05T11:46:55.595Z,94.13
2022-11-05T11:49:53.530Z,94.01
2022-11-05T11:52:36.728Z,94.24
2022-11-05T11:55:22.933Z,94.23
2022-11-05T11:57:53.389Z,94.45
2022-11-05T12:00:24.127Z,94.18
2022-11-05T12:03:22.685Z,94.35
2022-11-05T12:05:53.259Z,94.39
2022-11-05T12:09:05.335Z,94.36
2022-11-05T12:11:44.545Z,94.43
2022-11-05T12:14:33.071Z,94.47
2022-11-05T12:17:15.741Z,94.41
2022-11-05T12:19:49.304Z,94.24
2022-11-05T12:22:38.290Z,93.69
2022-11-05T12:25:33.375Z,94.03
2022-11-05T12:28:13.890Z,94.08
2022-11-05T12:30:54.066Z,93.54
2022-11-05T12:33:42.360Z,92.91
2022-11-05T12:36:15.643Z,91.66
2022-11-05T12:38:51.822Z,90.98
2022-11-05T12:41:39.393Z,89.25
2022-11-05T12:44:44.358Z,88.78
2022-11-05T12:47:24.809Z,89.14
2022-11-05T12:50:10.080Z,89.75
2022-11-05T12:53:14.904Z,89.96
2022-11-05T12:55:49.563Z,90.23
2022-11-05T12:58:40.035Z,90.62
2022-11-05T13:01:13.479Z,90.13
2022-11-05T13:03:53.427Z,90.25
2022-11-05T13:06:40.354Z,90.17
2022-11-05T13:09:20.105Z,89.37
2022-11-05T13:11:57.357Z,89.57
2022-11-05T13:14:30.834Z,88.83
2022-11-05T13:17:13.211Z,87.52
2022-11-05T13:19:57.118Z,87.34
2022-11-05T13:22:39.971Z,86.47
2022-11-05T13:25:11.029Z,86.18
2022-11-05T13:27:46.147Z,86.21
2022-11-05T13:30:26.442Z,86.51
2022-11-05T13:33:04.303Z,86.97
2022-11-05T13:35:41.250Z,87.06
2022-11-05T13:38:36.461Z,87.09
2022-11-05T13:41:34.110Z,87.11
2022-11-05T13:44:35.737Z,87.24
2022-11-05T13:47:09.354Z,87.67
2022-11-05T13:50:06.854Z,87.91
2022-11-05T13:53:04.731Z,87.48
2022-11-05T13:56:03.265Z,87.55
2022-11-05T13:58:55.950Z,87.69
2022-11-05T14:01:42.879Z,86.73
2022-11-05T14:04:25.557Z,86.77
2022-11-05T14:06:54.258Z,86.53
2022-11-05T14:09:27.553Z,86.36
2022-11-05T14:11:57.409Z,85.52
2022-11-05T14:14:30.859Z,84.84
2022-11-05T14:17:07.221Z,84.35
2022-11-05T14:20:06.946Z,84.12
2022-11-05T14:22:34.482Z,83.64
2022-11-05T14:25:24.372Z,83.46
2022-11-05T14:27:52.659Z,83.24
2022-11-05T14:30:44.425Z,82.41
2022-11-05T14:33:24.342Z,82.37
2022-11-05T14:35:53.690Z,82.09
2022-11-05T14:38:28.416Z,81.91
2022-11-05T14:41:01.557Z,81.78
2022-11-05T14:43:33.641Z,81.12
2022-11-05T14:46:06.207Z,80.56
2022-11-05T14:48:44.261Z,79.77
2022-11-05T14:51:40.627Z,78.32
2022-11-05T14:54:25.178Z,78.43
2022-11-05T14:56:58.748Z,77.83
2022-11-05T14:59:28.848Z,77.47
2022-11-05T15:02:01.745Z,77.60
2022-11-05T15:04:33.654Z,78.01
2022-11-05T15:07:04.888Z,78.10
2022-11-05T15:09:38.296Z,78.55
2022-11-05T15:12:09.625Z,78.30
2022-11-05T15:15:00.835Z,79.06
2022-11-05T15:17:38.759Z,79.25
2022-11-05T15:20:41.575Z,79.93
2022-11-05T15:23:14.738Z,80.17
2022-11-05T15:25:53.335Z,79.99
2022-11-05T15:28:38.423Z,80.23
2022-11-05T15:31:26.831Z,80.18
2022-11-05T15:34:20.513Z,79.94
2022-11-05T15:37:00.201Z,80.31
2022-11-05T15:39:38.398Z,80.74
2022-11-05T15:42:13.435Z,80.93
2022-11-05T15:44:45.291Z,80.67
2022-11-05T15:47:17.526Z,81.17
2022-11-05T15:49:48.368Z,81.26
2022-11-05T15:52:18.074Z,81.50
2022-11-05T15:54:45.893Z,81.62
2022-11-05T15:57:29.218Z,81.82
2022-11-05T15:59:56.866Z,81.95
2022-11-05T16:02:27.064Z,82.08
2022-11-05T16:04:55.296Z,82.21
2022-11-05T16:07:23.376Z,82.71
2022-11-05T16:09:57.138Z,82.62
2022-11-05T16:12:30.561Z,82.91
2022-11-05T16:15:10.598Z,83.18
2022-11-05T16:17:44.227Z,83.12
2022-11-05T16:20:18.194Z,83.71
2022-11-05T16:22:51.701Z,83.87
2022-11-05T16:25:31.372Z,84.62
2022-11-05T16:28:00.671Z,84.87
2022-11-05T16:30:31.538Z,84.50
2022-11-05T16:33:08.044Z,85.27
2022-11-05T16:35:40.319Z,85.98
2022-11-05T16:38:11.922Z,85.43
2022-11-05T16:40:39.624Z,85.83
2022-11-05T16:43:18.999Z,86.42
2022-11-05T16:45:46.839Z,86.58
2022-11-05T16:48:15.258Z,86.76
2022-11-05T16:50:45.399Z,86.93
2022-11-05T16:53:13.661Z,87.17
2022-11-05T16:55:43.294Z,87.05
2022-11-05T16:58:23.428Z,86.85
2022-11-05T17:00:55.371Z,86.92
2022-11-05T17:03:22.927Z,86.91
2022-11-05T17:05:50.500Z,86.95
2022-11-05T17:08:18.191Z,86.29
2022-11-05T17:10:45.970Z,86.28
2022-11-05T17:13:16.372Z,86.20
2022-11-05T17:15:46.885Z,86.47
2022-11-05T17:18:18.526Z,85.84
2022-11-05T17:20:49.842Z,86.01
2022-11-05T17:23:20.118Z,86.21
2022-11-05T17:25:51.081Z,85.54
2022-11-05T17:28:19.788Z,86.13
2022-11-05T17:30:54.293Z,86.19
2022-11-05T17:33:23.392Z,86.12
2022-11-05T17:35:52.872Z,85.99
2022-11-05T17:38:22.221Z,86.13
2022-11-05T17:40:50.496Z,85.87
2022-11-05T17:43:18.931Z,86.17
2022-11-05T17:45:49.852Z,86.49
2022-11-05T17:48:18.817Z,85.68
2022-11-05T17:50:48.646Z,86.41
2022-11-05T17:53:18.785Z,86.11
2022-11-05T17:55:47.232Z,85.42
2022-11-05T17:58:14.958Z,86.51
2022-11-05T18:00:44.327Z,85.75
2022-11-05T18:03:13.054Z,86.19
2022-11-05T18:05:41.678Z,86.49
2022-11-05T18:08:09.979Z,86.75
2022-11-05T18:10:38.672Z,86.48
2022-11-05T18:13:06.893Z,86.89
2022-11-05T18:15:36.407Z,87.39
2022-11-05T18:18:04.363Z,87.14
2022-11-05T18:20:32.964Z,86.67
2022-11-05T18:23:00.579Z,86.41
2022-11-05T18:25:28.081Z,87.19
2022-11-05T18:27:56.089Z,87.25
2022-11-05T18:30:23.661Z,87.61
2022-11-05T18:32:51.332Z,88.53
2022-11-05T18:35:18.870Z,88.19
2022-11-05T18:37:46.457Z,88.27
2022-11-05T18:40:14.098Z,87.66
2022-11-05T18:42:41.723Z,87.98
2022-11-05T18:45:10.415Z,88.43
2022-11-05T18:47:38.522Z,88.47
2022-11-05T18:50:07.812Z,88.28
2022-11-05T18:52:35.641Z,88.62
2022-11-05T18:55:03.488Z,89.13
2022-11-05T18:57:33.570Z,88.72
2022-11-05T19:00:01.140Z,89.13
2022-11-05T19:02:28.801Z,89.44
2022-11-05T19:05:22.533Z,90.23
2022-11-05T19:07:44.340Z,90.18
2022-11-05T19:10:11.889Z,89.51
2022-11-05T19:12:40.529Z,90.17
2022-11-05T19:15:08.933Z,90.45
2022-11-05T19:17:36.838Z,89.85
2022-11-05T19:20:06.939Z,90.31
2022-11-05T19:22:34.537Z,89.57
2022-11-05T19:25:02.048Z,89.98
2022-11-05T19:27:29.643Z,89.31
2022-11-05T19:29:57.320Z,90.31
2022-11-05T19:32:24.827Z,89.80
2022-11-05T19:34:52.323Z,90.23
2022-11-05T19:37:20.095Z,90.32
2022-11-05T19:39:47.570Z,89.95
2022-11-05T19:42:15.080Z,89.80
2022-11-05T19:44:43.814Z,89.87
2022-11-05T19:47:11.372Z,89.54
2022-11-05T19:49:38.889Z,89.25
2022-11-05T19:52:06.858Z,89.43
2022-11-05T19:54:36.028Z,89.38
2022-11-05T19:57:03.690Z,89.55
2022-11-05T19:59:31.321Z,89.97
2022-11-05T20:01:58.990Z,89.54
2022-11-05T20:04:26.726Z,89.80
2022-11-05T20:06:54.254Z,90.28
2022-11-05T20:09:23.209Z,89.88
2022-11-05T20:11:54.368Z,90.14
2022-11-05T20:14:23.748Z,89.83
2022-11-05T20:16:51.336Z,89.96
2022-11-05T20:19:21.145Z,90.31
2022-11-05T20:21:48.738Z,90.85
2022-11-05T20:24:23.794Z,90.83
2022-11-05T20:26:56.335Z,90.84
2022-11-05T20:29:30.526Z,90.98
2022-11-05T20:32:02.362Z,90.08
2022-11-05T20:34:30.820Z,90.63
2022-11-05T20:36:58.429Z,90.17
2022-11-05T20:39:26.069Z,91.16
2022-11-05T20:41:53.627Z,91.21
2022-11-05T20:44:21.172Z,91.46
2022-11-05T20:46:48.845Z,91.25
2022-11-05T20:49:20.044Z,90.91
2022-11-05T20:51:50.203Z,91.40
2022-11-05T20:54:17.814Z,91.50
2022-11-05T20:56:45.439Z,91.74
2022-11-05T20:59:12.939Z,91.03
2022-11-05T21:01:40.697Z,91.31
2022-11-05T21:04:08.408Z,91.07
2022-11-05T21:06:36.106Z,90.91
2022-11-05T21:09:04.327Z,91.00
2022-11-05T21:11:51.869Z,91.22
2022-11-05T21:14:19.695Z,90.97
2022-11-05T21:16:47.205Z,91.30
2022-11-05T21:19:15.747Z,90.85
2022-11-05T21:21:43.268Z,90.79
2022-11-05T21:24:10.840Z,90.88
2022-11-05T21:26:38.359Z,90.39
2022-11-05T21:29:07.727Z,90.19
2022-11-05T21:31:38.498Z,90.36
2022-11-05T21:34:06.134Z,89.70
2022-11-05T21:36:34.041Z,89.81
2022-11-05T21:39:02.042Z,90.07
2022-11-05T21:41:29.732Z,89.91
2022-11-05T21:43:57.444Z,89.13
2022-11-05T21:46:25.214Z,89.42
2022-11-05T21:48:53.029Z,89.58
2022-11-05T21:51:39.205Z,89.42
2022-11-05T21:54:25.620Z,89.49
2022-11-05T21:57:11.731Z,89.59
2022-11-05T21:59:48.052Z,90.51
2022-11-05T22:02:18.885Z,90.64
2022-11-05T22:04:50.235Z,90.73
2022-11-05T22:07:24.674Z,90.25
2022-11-05T22:09:52.490Z,90.76
2022-11-05T22:12:20.329Z,90.04
2022-11-05T22:14:47.855Z,90.83
2022-11-05T22:17:15.730Z,90.30
2022-11-05T22:19:43.332Z,90.18
2022-11-05T22:22:11.403Z,89.91
2022-11-05T22:24:40.175Z,89.97
2022-11-05T22:27:15.436Z,90.45
2022-11-05T22:29:43.325Z,90.42
2022-11-05T22:32:11.401Z,89.59
2022-11-05T22:34:39.149Z,89.85
2022-11-05T22:37:06.924Z,89.52
2022-11-05T22:39:34.477Z,89.35
2022-11-05T22:42:05.704Z,89.53
2022-11-05T22:44:36.868Z,89.06
2022-11-05T22:47:04.892Z,89.54
2022-11-05T22:49:33.310Z,89.65
2022-11-05T22:52:00.866Z,89.35
2022-11-05T22:54:28.452Z,89.33
2022-11-05T22:56:55.897Z,88.80
2022-11-05T22:59:23.532Z,89.03
2022-11-05T23:01:51.159Z,89.22
2022-11-05T23:04:18.731Z,89.43
2022-11-05T23:07:04.873Z,89.45
2022-11-05T23:09:53.061Z,88.97
2022-11-05T23:12:31.872Z,89.02
2022-11-05T23:15:00.885Z,89.17
2022-11-05T23:17:47.514Z,88.79
2022-11-05T23:20:37.257Z,89.07
2022-11-05T23:23:27.909Z,89.50
2022-11-05T23:26:21.656Z,90.19
2022-11-05T23:28:49.684Z,89.68
2022-11-05T23:31:35.608Z,89.92
2022-11-05T23:34:03.207Z,90.17
2022-11-05T23:36:49.068Z,90.08
2022-11-05T23:39:16.734Z,89.72
2022-11-05T23:42:02.685Z,89.50
2022-11-05T23:44:49.084Z,89.80
2022-11-05T23:47:35.379Z,89.46
2022-11-05T23:50:02.957Z,89.70
2022-11-05T23:52:30.476Z,90.02
2022-11-05T23:54:57.985Z,90.53
2022-11-05T23:57:25.530Z,90.17
2022-11-05T23:59:53.103Z,89.56
